Time;durP1;ratioP1;P1;durP2;ratioP2;P2;SDS_P1;SDS_P2;PMS_P1;PMS_P2;Temp;Humidity;BMP_temperature;BMP_pressure;BME280_temperature;BME280_humidity;BME280_pressure;Samples;Min_cycle;Max_cycle;Signal;HPM_P1;HPM_P2
2022/08/18 00:02:18;;;;;;;15.45;6.47;;;;;;;23.60;41.55;99625.66;4965514;28;20063;-75
2022/08/18 00:04:55;;;;;;;15.32;5.88;;;;;;;23.49;41.86;99630.59;4955733;29;20248;-76
2022/08/18 00:07:31;;;;;;;13.98;6.05;;;;;;;23.44;42.10;99636.72;4955182;29;20491;-76
2022/08/18 00:10:01;;;;;;;19.75;6.43;;;;;;;23.36;42.26;99633.94;4958116;28;20074;-76
2022/08/18 00:12:33;;;;;;;18.58;5.57;;;;;;;23.26;42.64;99642.50;4974410;28;20058;-75
2022/08/18 00:15:03;;;;;;;24.55;6.30;;;;;;;23.21;42.66;99643.72;4974824;28;20100;-76
2022/08/18 00:17:32;;;;;;;14.95;5.85;;;;;;;23.18;42.85;99646.59;4975150;28;20102;-69
2022/08/18 00:20:00;;;;;;;17.23;6.22;;;;;;;23.20;42.75;99647.78;4974637;28;20192;-69
2022/08/18 00:22:27;;;;;;;14.18;5.95;;;;;;;23.20;42.81;99647.78;4963313;28;20055;-69
2022/08/18 00:24:56;;;;;;;23.73;6.43;;;;;;;23.19;42.89;99646.19;4954988;29;20163;-69
2022/08/18 00:27:29;;;;;;;20.45;6.20;;;;;;;23.18;43.10;99655.13;4955586;29;20082;-69
2022/08/18 00:30:04;;;;;;;15.20;5.93;;;;;;;23.10;43.35;99645.84;4955271;29;20054;-69
2022/08/18 00:32:35;;;;;;;17.02;5.97;;;;;;;23.04;43.59;99641.78;4955137;29;20066;-69
2022/08/18 00:35:25;;;;;;;22.90;6.47;;;;;;;23.05;43.57;99642.59;4955123;29;20059;-69
2022/08/18 00:37:57;;;;;;;26.63;6.55;;;;;;;22.95;43.91;99640.66;4955237;29;20055;-69
2022/08/18 00:40:31;;;;;;;96.95;46.45;;;;;;;22.91;43.91;99634.97;4973277;28;20121;-70
2022/08/18 00:43:04;;;;;;;;;;;;;;;22.77;44.00;99643.53;4975017;28;20058;-69
2022/08/18 00:45:36;;;;;;;18.65;6.20;;;;;;;22.83;44.09;99639.06;4974285;28;20384;-69
2022/08/18 00:48:05;;;;;;;23.48;7.20;;;;;;;22.89;44.04;99643.09;4974127;28;20490;-68
2022/08/18 00:50:37;;;;;;;13.23;5.90;;;;;;;22.84;44.07;99646.38;4974333;28;20070;-70
2022/08/18 00:53:20;;;;;;;22.08;6.05;;;;;;;22.81;44.29;99658.53;4974343;28;20059;-70
2022/08/18 00:55:49;;;;;;;18.17;5.80;;;;;;;22.75;44.49;99665.84;4974491;28;20532;-70
2022/08/18 00:58:28;;;;;;;13.15;5.97;;;;;;;22.71;44.38;99667.88;4974048;28;20616;-69
2022/08/18 01:00:55;;;;;;;18.50;5.75;;;;;;;22.65;44.39;99665.91;4973940;28;20073;-69
2022/08/18 01:03:23;;;;;;;15.52;6.20;;;;;;;22.63;44.50;99669.16;4973922;28;20118;-69
2022/08/18 01:05:54;;;;;;;12.65;5.80;;;;;;;22.63;44.56;99669.16;4973728;28;20122;-69
2022/08/18 01:08:21;;;;;;;14.32;5.45;;;;;;;22.59;44.46;99678.88;4973764;28;20097;-69
2022/08/18 01:10:56;;;;;;;11.63;5.57;;;;;;;22.58;44.65;99658.22;4969102;28;20055;-69
2022/08/18 01:13:28;;;;;;;16.85;5.85;;;;;;;22.58;44.70;99655.38;4954158;29;20105;-69
2022/08/18 01:15:56;;;;;;;18.00;6.60;;;;;;;22.53;44.82;99652.94;4954526;29;20061;-69
2022/08/18 01:24:11;;;;;;;13.63;5.78;;;;;;;22.46;45.15;99649.31;4936952;29;20059;-69
2022/08/18 01:26:48;;;;;;;10.23;5.95;;;;;;;22.44;44.87;99638.38;4954475;29;20055;-68
2022/08/18 01:29:17;;;;;;;14.57;5.82;;;;;;;22.44;45.14;99648.91;4953953;28;20062;-69
2022/08/18 01:31:53;;;;;;;;;;;;;;;22.25;45.39;99646.53;4954958;29;20115;-69
2022/08/18 01:34:24;;;;;;;21.75;6.03;;;;;;;22.16;45.67;99655.47;4954399;29;19932;-69
2022/08/18 01:36:51;;;;;;;;;;;;;;;21.96;46.04;99654.25;4955105;29;20126;-69
2022/08/18 01:39:20;;;;;;;12.60;6.05;;;;;;;22.03;46.15;99654.28;4953954;28;20291;-70
2022/08/18 01:42:07;;;;;;;12.50;5.35;;;;;;;22.03;46.10;99647.78;4954371;29;20118;-70
2022/08/18 01:44:33;;;;;;;17.63;5.65;;;;;;;22.02;46.22;99660.34;4954696;29;20087;-69
2022/08/18 01:47:01;;;;;;;13.00;6.25;;;;;;;21.99;46.36;99659.09;4954449;29;20067;-76
2022/08/18 01:49:27;;;;;;;11.23;5.90;;;;;;;21.99;46.59;99666.81;4936929;29;20059;-75
2022/08/18 01:51:54;;;;;;;12.07;5.97;;;;;;;21.99;46.61;99667.59;4955056;28;20059;-77
2022/08/18 01:54:21;;;;;;;15.20;6.75;;;;;;;22.00;46.72;99668.44;4940717;29;20059;-76
2022/08/18 01:56:49;;;;;;;19.85;6.53;;;;;;;21.97;46.88;99670.06;4958332;29;20557;-76
2022/08/18 01:59:15;;;;;;;23.50;7.85;;;;;;;21.96;46.98;99665.59;4957804;29;20056;-76
2022/08/18 02:01:46;;;;;;;15.90;7.00;;;;;;;21.93;46.81;99669.22;4975230;28;20391;-76
2022/08/18 02:04:23;;;;;;;20.67;7.25;;;;;;;21.89;46.90;99671.28;4976891;28;20051;-77
2022/08/18 02:07:09;;;;;;;14.15;6.55;;;;;;;21.87;46.99;99675.72;4959490;28;20062;-75
2022/08/18 02:09:39;;;;;;;13.15;6.80;;;;;;;21.87;47.15;99664.41;4977233;28;20561;-75
2022/08/18 02:12:06;;;;;;;;;;;;;;;21.77;47.27;99680.16;4977509;28;20065;-75
2022/08/18 02:14:35;;;;;;;13.13;7.50;;;;;;;21.82;47.27;99685.44;4943457;28;19960;-75
2022/08/18 02:17:04;;;;;;;12.13;6.60;;;;;;;21.79;47.22;99694.72;4959151;28;20460;-68
2022/08/18 02:19:49;;;;;;;17.38;8.73;;;;;;;21.74;47.33;99689.47;4957654;29;20142;-68
2022/08/18 02:22:19;;;;;;;20.35;7.82;;;;;;;21.75;47.61;99693.91;4957765;29;20055;-69
2022/08/18 02:24:48;;;;;;;15.60;7.55;;;;;;;21.76;47.64;99687.03;4957823;29;20071;-69
2022/08/18 02:27:15;;;;;;;;;;;;;;;21.68;47.47;99691.06;4957918;29;20403;-69
2022/08/18 02:29:43;;;;;;;22.08;7.82;;;;;;;21.74;47.37;99689.47;4957448;29;19926;-69
2022/08/18 02:32:10;;;;;;;32.13;8.93;;;;;;;21.80;47.43;99696.34;4957553;29;20059;-68
2022/08/18 02:34:36;;;;;;;26.13;8.20;;;;;;;21.82;47.50;99704.44;4957066;29;20518;-68
2022/08/18 02:37:04;;;;;;;15.05;7.90;;;;;;;21.83;47.70;99706.06;4939992;29;20523;-69
2022/08/18 02:39:34;;;;;;;18.60;8.05;;;;;;;21.83;47.67;99703.22;4957321;28;20059;-69
2022/08/18 02:42:01;;;;;;;18.30;7.80;;;;;;;21.82;47.82;99702.44;4957272;29;20059;-68
2022/08/18 02:44:28;;;;;;;18.55;7.78;;;;;;;21.81;47.84;99699.97;4956963;29;20086;-69
2022/08/18 02:46:55;;;;;;;15.85;8.32;;;;;;;21.84;47.70;99699.19;4939663;29;20055;-69
2022/08/18 02:49:22;;;;;;;17.33;7.80;;;;;;;21.84;47.89;99710.53;4956817;29;20055;-68
2022/08/18 02:51:50;;;;;;;21.83;8.00;;;;;;;21.81;47.97;99703.63;4957331;29;20067;-68
2022/08/18 02:54:19;;;;;;;16.02;8.02;;;;;;;21.77;48.26;99711.31;4956933;29;20058;-68
2022/08/18 02:56:46;;;;;;;15.07;8.50;;;;;;;21.77;48.09;99707.66;4957275;29;20150;-67
2022/08/18 02:59:18;;;;;;;19.17;8.60;;;;;;;21.80;48.13;99704.84;4956949;29;20403;-69
2022/08/18 03:01:49;;;;;;;28.70;9.68;;;;;;;21.79;48.18;99713.75;4939630;29;20158;-69
2022/08/18 03:04:20;;;;;;;23.30;8.50;;;;;;;21.79;48.17;99706.03;4955539;28;20066;-68
2022/08/18 03:06:55;;;;;;;25.95;8.95;;;;;;;21.78;48.23;99712.94;4957195;28;20518;-69
2022/08/18 03:09:22;;;;;;;19.35;9.65;;;;;;;21.74;48.33;99706.47;4956418;29;20537;-69
2022/08/18 03:11:49;;;;;;;18.58;9.35;;;;;;;21.72;48.13;99708.84;4956724;29;20059;-69
2022/08/18 03:14:16;;;;;;;15.13;9.65;;;;;;;21.69;48.14;99704.81;4956208;29;20443;-69
2022/08/18 03:16:46;;;;;;;17.02;9.23;;;;;;;21.71;48.18;99698.75;4956691;29;20143;-69
2022/08/18 03:19:27;;;;;;;22.77;9.77;;;;;;;21.79;48.00;99691.09;4956558;29;20057;-69
2022/08/18 03:21:56;;;;;;;27.17;10.98;;;;;;;21.83;48.10;99709.72;4956545;29;20491;-69
2022/08/18 03:24:30;;;;;;;27.45;10.85;;;;;;;21.89;47.79;99702.44;4956209;29;20066;-68
2022/08/18 03:26:58;;;;;;;;;;;;;;;21.83;47.88;99698.38;4957191;29;20055;-67
2022/08/18 03:29:25;;;;;;;28.08;9.88;;;;;;;21.95;47.75;99700.00;4972984;28;20381;-68
2022/08/18 03:31:58;;;;;;;19.13;11.45;;;;;;;22.08;47.59;99699.19;4975548;28;20087;-69
2022/08/18 03:34:25;;;;;;;32.35;12.98;;;;;;;22.12;47.50;99693.50;4975550;28;20050;-68
2022/08/18 03:36:53;;;;;;;27.45;10.85;;;;;;;22.20;47.34;99695.94;4975578;28;20143;-69
2022/08/18 03:39:23;;;;;;;29.48;14.00;;;;;;;22.24;47.39;99696.75;4965279;28;20062;-69
2022/08/18 03:41:55;;;;;;;34.50;13.98;;;;;;;22.26;47.31;99697.13;4939537;29;20063;-69
2022/08/18 03:44:32;;;;;;;40.20;15.40;;;;;;;22.30;47.23;99700.78;4956946;29;20521;-68
2022/08/18 03:47:03;;;;;;;32.95;16.70;;;;;;;22.30;47.21;99700.78;4956207;29;20173;-69
2022/08/18 03:49:32;;;;;;;36.22;18.83;;;;;;;22.26;47.33;99699.19;4956047;29;20510;-70
2022/08/18 03:52:00;;;;;;;43.97;20.17;;;;;;;22.23;47.34;99697.94;4956069;29;20510;-70
2022/08/18 03:54:30;;;;;;;42.45;24.60;;;;;;;22.25;47.14;99708.88;4955600;29;20065;-70
2022/08/18 03:57:01;;;;;;;66.80;33.42;;;;;;;22.24;47.17;99704.44;4956186;29;20067;-70
2022/08/18 03:59:30;;;;;;;60.05;31.85;;;;;;;22.18;47.31;99704.03;4956125;29;20054;-69
2022/08/18 04:01:58;;;;;;;49.65;31.13;;;;;;;22.19;47.22;99704.84;4955730;29;20459;-70
2022/08/18 04:04:27;;;;;;;60.38;37.53;;;;;;;22.26;47.02;99708.47;4955903;29;20065;-69
2022/08/18 04:07:03;;;;;;;78.05;43.83;;;;;;;22.28;46.83;99705.22;4955855;29;20506;-76
2022/08/18 04:09:32;;;;;;;68.25;40.38;;;;;;;22.22;47.11;99704.03;4938860;29;20111;-75
2022/08/18 04:12:11;;;;;;;75.85;45.00;;;;;;;22.30;46.92;99709.28;4973771;28;20066;-76
2022/08/18 04:14:48;;;;;;;77.88;46.45;;;;;;;22.45;46.49;99712.91;4974788;28;20530;-76
2022/08/18 04:17:23;;;;;;;86.50;52.33;;;;;;;22.54;46.36;99705.63;4968282;28;20061;-76
2022/08/18 04:19:55;;;;;;;90.95;53.42;;;;;;;22.60;46.13;99706.84;4955757;29;20097;-75
2022/08/18 04:22:24;;;;;;;112.47;68.63;;;;;;;22.66;46.16;99696.69;4955337;29;20067;-77
2022/08/18 04:24:51;;;;;;;130.63;78.27;;;;;;;22.72;45.87;99705.56;4955466;29;20059;-76
2022/08/18 04:27:20;;;;;;;142.15;82.05;;;;;;;22.82;45.64;99705.53;4938371;29;20077;-76
2022/08/18 04:29:47;;;;;;;181.00;111.33;;;;;;;22.84;45.51;99694.59;4955426;29;20060;-76
2022/08/18 04:32:15;;;;;;;161.60;101.82;;;;;;;22.85;45.45;99698.22;4937649;29;20804;-76
2022/08/18 04:34:42;;;;;;;164.77;97.40;;;;;;;22.87;45.39;99699.44;4954925;29;20067;-77
2022/08/18 04:37:09;;;;;;;172.15;103.45;;;;;;;22.91;45.29;99703.06;4938346;28;20063;-76
2022/08/18 04:39:37;;;;;;;173.15;103.57;;;;;;;22.99;45.11;99710.34;4954730;28;20052;-76
2022/08/18 04:42:04;;;;;;;172.15;103.18;;;;;;;23.02;45.01;99709.53;4955133;29;20058;-76
2022/08/18 04:44:32;;;;;;;166.77;99.38;;;;;;;23.13;44.60;99713.13;4954862;29;20055;-76
2022/08/18 04:47:00;;;;;;;160.30;94.47;;;;;;;23.21;44.55;99711.84;4955125;29;20463;-69
2022/08/18 04:49:27;;;;;;;166.90;98.93;;;;;;;23.26;44.47;99705.78;4954477;29;20145;-70
2022/08/18 04:55:00;;;;;;;141.07;91.22;;;;;;;23.24;44.09;99716.72;4954490;29;20070;-69
2022/08/18 04:57:27;;;;;;;139.02;87.22;;;;;;;23.15;44.51;99718.41;4954558;29;20468;-70
2022/08/18 04:59:59;;;;;;;140.25;85.88;;;;;;;23.12;44.61;99717.16;4962564;28;20129;-71
2022/08/18 05:02:31;;;;;;;144.60;85.18;;;;;;;23.23;44.27;99726.44;4973773;28;20122;-72
2022/08/18 05:05:00;;;;;;;138.90;89.55;;;;;;;23.31;44.12;99721.59;4974170;28;20534;-72
2022/08/18 05:07:29;;;;;;;153.63;91.95;;;;;;;23.41;44.04;99726.38;4960242;28;20066;-72
2022/08/18 05:09:56;;;;;;;136.75;87.85;;;;;;;23.54;43.80;99719.03;4937767;29;20059;-72
2022/08/18 05:12:22;;;;;;;151.02;85.70;;;;;;;23.63;43.82;99721.38;4936946;29;20075;-71
2022/08/18 05:14:53;;;;;;;133.55;82.53;;;;;;;23.74;43.62;99716.44;4954374;29;20059;-71
2022/08/18 05:17:20;;;;;;;130.00;80.90;;;;;;;23.89;43.42;99723.66;4954567;28;20403;-72
2022/08/18 05:19:48;;;;;;;132.57;85.40;;;;;;;23.95;43.06;99719.13;4954503;29;20055;-73
2022/08/18 05:22:18;;;;;;;134.60;82.05;;;;;;;24.06;42.87;99723.53;4937407;29;20147;-71
2022/08/18 05:24:54;;;;;;;131.70;79.97;;;;;;;24.21;42.63;99724.19;4954416;29;20063;-71
2022/08/18 05:27:21;;;;;;;129.13;79.10;;;;;;;24.42;42.53;99724.03;4955366;28;20418;-71
2022/08/18 05:29:47;;;;;;;139.43;78.47;;;;;;;24.58;41.82;99729.97;4958438;29;20142;-71
2022/08/18 05:32:17;;;;;;;;;;;;;;;24.54;41.87;99720.66;4959174;29;20059;-72
2022/08/18 05:35:09;;;;;;;113.05;70.05;;;;;;;24.77;41.79;99729.38;4958056;29;19934;-72
2022/08/18 05:38:18;;;;;;;124.00;72.38;;;;;;;24.91;41.06;99718.66;4958444;29;20372;-71
2022/08/18 05:40:54;;;;;;;112.07;71.82;;;;;;;25.06;40.89;99719.28;4938194;29;20063;-71
2022/08/18 05:43:21;;;;;;;112.65;69.30;;;;;;;25.27;40.41;99718.19;4957958;29;20059;-71
2022/08/18 05:45:50;;;;;;;113.82;70.80;;;;;;;25.55;40.21;99718.63;4958270;29;20106;-71
2022/08/18 05:48:18;;;;;;;108.75;69.63;;;;;;;26.12;39.42;99727.97;4957889;29;20084;-71
2022/08/18 05:50:44;;;;;;;112.70;71.07;;;;;;;27.72;36.75;99724.41;4958003;29;20055;-71
2022/08/18 05:53:15;;;;;;;110.85;68.72;;;;;;;29.89;32.52;99724.16;4957672;29;20067;-71
2022/08/18 05:56:46;;;;;;;106.07;69.75;;;;;;;30.90;31.07;99729.78;4957654;29;20067;-71
2022/08/18 05:58:56;;;;;;;115.47;68.85;;;;;;;31.76;29.61;99719.06;4947700;29;20069;-71
2022/08/18 06:01:26;;;;;;;;;;;;;;;31.77;29.98;99728.50;4958736;29;20062;-71
2022/08/18 06:04:03;;;;;;;113.57;71.70;;;;;;;31.78;29.10;99732.97;4957500;29;19926;-71
2022/08/18 06:06:32;;;;;;;98.13;69.38;;;;;;;30.46;31.00;99728.03;4957869;28;20063;-71
2022/08/18 06:09:31;;;;;;;108.38;71.50;;;;;;;30.25;31.13;99723.81;4957416;29;20519;-71
2022/08/18 06:12:08;;;;;;;108.90;72.25;;;;;;;30.26;30.79;99730.34;4958089;29;20063;-71
2022/08/18 06:14:37;;;;;;;117.82;75.30;;;;;;;29.63;31.84;99728.25;4957151;29;20252;-71
2022/08/18 06:17:07;;;;;;;;;;;;;;;29.43;31.90;99744.03;4958332;29;20063;-68
2022/08/18 06:19:48;;;;;;;113.72;72.78;;;;;;;29.42;31.88;99731.75;4957496;29;19927;-68
2022/08/18 06:22:35;;;;;;;113.35;72.35;;;;;;;29.16;32.10;99737.88;4957473;29;20063;-68
2022/08/18 06:25:26;;;;;;;115.57;73.35;;;;;;;28.76;32.68;99731.59;4958062;28;20063;-67
2022/08/18 06:28:13;;;;;;;103.68;64.28;;;;;;;28.74;32.36;99739.84;4976294;28;20532;-68
2022/08/18 06:30:40;;;;;;;97.15;62.95;;;;;;;28.44;32.70;99731.63;4977042;28;20059;-67
2022/08/18 06:33:16;;;;;;;98.03;62.15;;;;;;;28.34;32.56;99741.28;4976400;28;20054;-67
2022/08/18 06:36:02;;;;;;;95.90;60.92;;;;;;;28.06;33.17;99733.41;4976573;28;20070;-77
2022/08/18 06:38:37;;;;;;;101.25;64.15;;;;;;;27.95;33.49;99727.94;4972159;28;20051;-76
2022/08/18 06:41:19;;;;;;;104.80;64.68;;;;;;;28.08;33.35;99743.16;4956967;29;20557;-76
2022/08/18 06:44:15;;;;;;;110.85;70.50;;;;;;;28.73;32.42;99746.81;4957084;29;20065;-77
2022/08/18 06:47:01;;;;;;;112.47;71.93;;;;;;;29.10;31.95;99751.94;4957229;29;20066;-76
2022/08/18 06:49:54;;;;;;;97.47;62.58;;;;;;;29.07;32.03;99752.06;4939543;29;20151;-76
2022/08/18 06:52:35;;;;;;;97.63;57.42;;;;;;;28.86;32.33;99756.28;4956586;29;20059;-76
2022/08/18 06:55:16;;;;;;;91.30;54.42;;;;;;;28.47;32.75;99747.13;4956435;29;20063;-75
2022/08/18 06:57:58;;;;;;;93.05;49.53;;;;;;;28.29;33.25;99753.25;4956908;29;20471;-75
2022/08/18 07:00:28;;;;;;;59.50;29.75;;;;;;;28.20;33.17;99748.19;4957049;29;20058;-76
2022/08/18 07:03:14;;;;;;;56.97;26.27;;;;;;;28.07;32.84;99755.84;4939098;29;20091;-76
2022/08/18 07:06:06;;;;;;;43.33;23.23;;;;;;;28.03;32.94;99760.03;4939583;29;20150;-76
2022/08/18 07:08:43;;;;;;;47.33;20.45;;;;;;;27.86;32.64;99753.47;4956257;29;20146;-77
2022/08/18 07:11:13;;;;;;;46.45;21.08;;;;;;;27.99;32.67;99756.47;4969018;28;20141;-77
2022/08/18 07:13:43;;;;;;;32.80;19.05;;;;;;;28.24;32.13;99757.47;4958955;28;20406;-76
2022/08/18 07:16:28;;;;;;;35.63;19.13;;;;;;;28.44;31.92;99748.78;4961705;28;20478;-75
2022/08/18 07:19:21;;;;;;;34.97;17.63;;;;;;;28.75;31.55;99752.91;4955882;28;20586;-75
2022/08/18 07:22:13;;;;;;;29.98;16.88;;;;;;;29.22;30.53;99759.78;4956710;29;20138;-75
2022/08/18 07:24:46;;;;;;;36.80;17.80;;;;;;;31.20;27.78;99767.22;4956299;29;20062;-69
2022/08/18 07:27:13;;;;;;;33.10;15.93;;;;;;;33.19;25.58;99757.41;4956019;29;20062;-68
2022/08/18 07:30:02;;;;;;;29.23;14.23;;;;;;;36.73;21.52;99755.22;4956617;28;20562;-69
2022/08/18 07:32:39;;;;;;;29.45;14.85;;;;;;;38.70;19.05;99762.88;4956083;29;20069;-71
2022/08/18 07:35:08;;;;;;;33.40;14.00;;;;;;;39.99;17.93;99754.91;4955924;29;20062;-69
2022/08/18 07:37:50;;;;;;;19.23;11.13;;;;;;;41.13;16.38;99761.16;4955737;29;20059;-69
2022/08/18 07:40:40;;;;;;;20.70;11.00;;;;;;;42.21;15.36;99762.34;4955929;28;20059;-69
2022/08/18 07:43:11;;;;;;;13.88;9.38;;;;;;;42.85;14.44;99763.63;4955835;29;20058;-69
2022/08/18 07:45:44;;;;;;;18.95;8.50;;;;;;;43.27;13.53;99765.00;4957661;28;20519;-70
2022/08/18 07:48:12;;;;;;;16.15;8.35;;;;;;;44.27;13.03;99756.31;4969797;28;20061;-69
2022/08/18 07:51:14;;;;;;;19.55;8.60;;;;;;;45.37;11.68;99765.94;4958909;28;20380;-69
2022/08/18 07:54:08;;;;;;;16.75;8.68;;;;;;;46.27;11.33;99763.31;4957866;28;20062;-69
2022/08/18 07:57:15;;;;;;;12.57;8.23;;;;;;;47.93;10.26;99753.44;4960247;28;20051;-70
2022/08/18 07:59:56;;;;;;;22.30;9.13;;;;;;;49.43;8.95;99765.22;4957990;28;20138;-69
2022/08/18 08:03:11;;;;;;;20.33;9.52;;;;;;;49.36;9.12;99763.09;4960646;28;20090;-70
2022/08/18 08:05:47;;;;;;;27.48;7.78;;;;;;;49.66;8.95;99764.38;4968908;28;20055;-70
2022/08/18 08:09:02;;;;;;;16.48;6.82;;;;;;;49.03;8.93;99761.41;4964320;28;20062;-70
2022/08/18 08:11:45;;;;;;;15.57;6.10;;;;;;;50.09;8.45;99766.91;4940450;28;20563;-70
2022/08/18 08:14:18;;;;;;;18.33;6.28;;;;;;;50.98;8.18;99758.69;4955979;28;20062;-70
2022/08/18 08:17:10;;;;;;;17.55;6.35;;;;;;;51.61;7.49;99764.91;4970389;28;20090;-68
2022/08/18 08:20:07;;;;;;;21.52;6.05;;;;;;;51.45;7.58;99752.47;4960747;28;20056;-70
2022/08/18 08:22:40;;;;;;;39.50;16.38;;;;;;;51.40;7.90;99759.44;4954965;28;20145;-70
2022/08/18 08:25:30;;;;;;;20.52;6.45;;;;;;;52.13;7.33;99754.50;4956233;28;20519;-69
2022/08/18 08:28:20;;;;;;;15.90;6.13;;;;;;;51.98;7.36;99754.75;4972760;28;20055;-69
2022/08/18 08:31:12;;;;;;;18.20;6.38;;;;;;;52.97;7.42;99754.72;4974158;28;20414;-70
2022/08/18 08:34:21;;;;;;;13.00;5.82;;;;;;;54.37;6.16;99749.91;4972298;28;20140;-70
2022/08/18 08:36:56;;;;;;;9.85;5.22;;;;;;;55.34;5.81;99750.25;4974451;28;20059;-70
2022/08/18 08:39:34;;;;;;;13.50;4.73;;;;;;;55.55;5.86;99753.25;4962818;28;20590;-69
2022/08/18 08:42:23;;;;;;;13.57;5.07;;;;;;;54.56;5.77;99753.59;4954991;29;20091;-70
2022/08/18 08:45:05;;;;;;;17.58;4.80;;;;;;;53.73;5.82;99748.78;4960402;28;20411;-70
2022/08/18 08:47:39;;;;;;;16.95;4.50;;;;;;;53.21;6.71;99741.75;4960012;28;20142;-72
2022/08/18 08:50:08;;;;;;;8.57;4.07;;;;;;;53.89;6.52;99738.13;4954183;28;20055;-71
2022/08/18 08:52:51;;;;;;;10.73;4.40;;;;;;;53.13;6.12;99732.19;4937475;29;20106;-69
2022/08/18 08:55:30;;;;;;;14.60;5.72;;;;;;;53.03;6.68;99752.22;4954763;28;20077;-70
2022/08/18 08:58:18;;;;;;;13.57;4.07;;;;;;;53.52;6.24;99736.75;4954612;29;20407;-70
2022/08/18 09:00:47;;;;;;;13.55;3.65;;;;;;;54.10;6.28;99741.22;4954245;28;20059;-70
2022/08/18 09:03:26;;;;;;;10.77;3.70;;;;;;;53.01;6.00;99725.28;4954210;29;20063;-70
2022/08/18 09:05:59;;;;;;;27.85;3.33;;;;;;;53.24;5.79;99738.28;4958271;28;20063;-70
2022/08/18 09:08:26;;;;;;;10.18;3.40;;;;;;;53.72;6.05;99729.38;4960860;28;20065;-69
2022/08/18 09:11:19;;;;;;;;;;;;;;;53.86;5.51;99727.44;4960663;28;20055;-69
2022/08/18 09:14:33;;;;;;;8.35;2.83;;;;;;;55.17;5.25;99729.66;4954804;28;19926;-70
2022/08/18 09:17:27;;;;;;;10.63;2.80;;;;;;;56.49;5.26;99743.13;4945951;28;20070;-69
2022/08/18 09:20:11;;;;;;;4.43;2.50;;;;;;;55.94;5.06;99729.75;4959188;28;20054;-70
2022/08/18 09:22:58;;;;;;;7.65;2.83;;;;;;;56.84;4.74;99734.91;4960025;28;20059;-70
2022/08/18 09:25:38;;;;;;;6.60;3.05;;;;;;;57.32;3.84;99722.97;4957113;28;20062;-70
2022/08/18 09:28:20;;;;;;;9.30;3.15;;;;;;;57.62;3.69;99751.75;4966077;28;20059;-69
2022/08/18 09:31:03;;;;;;;7.88;3.10;;;;;;;56.45;3.92;99733.88;4963528;28;20479;-69
2022/08/18 09:33:39;;;;;;;5.32;2.95;;;;;;;56.51;4.63;99746.22;4964930;28;20069;-70
2022/08/18 09:36:44;;;;;;;7.03;3.28;;;;;;;56.09;4.29;99752.41;4960930;28;20150;-71
2022/08/18 09:42:16;;;;;;;10.15;2.55;;;;;;;52.47;5.75;99724.66;4956353;28;20499;-70
2022/08/18 09:44:47;;;;;;;14.40;2.60;;;;;;;47.58;8.73;99716.72;4973700;28;20066;-70
2022/08/18 09:47:19;;;;;;;11.80;2.65;;;;;;;44.29;10.57;99710.41;4963590;28;20506;-70
2022/08/18 09:50:16;;;;;;;18.23;2.83;;;;;;;41.76;12.53;99720.16;4953916;29;20059;-70
2022/08/18 09:52:56;;;;;;;14.75;3.38;;;;;;;39.87;14.26;99722.03;4964449;28;20059;-69
2022/08/18 09:55:23;;;;;;;9.98;2.53;;;;;;;38.62;15.18;99732.69;4973620;28;20162;-70
2022/08/18 09:58:12;;;;;;;9.95;4.68;;;;;;;37.22;16.24;99722.41;4973042;28;20153;-70
2022/08/18 10:00:39;;;;;;;7.80;2.85;;;;;;;36.16;17.43;99722.19;4972731;28;20581;-70
2022/08/18 10:03:17;;;;;;;5.85;2.55;;;;;;;35.05;18.94;99718.53;4972832;28;20082;-70
2022/08/18 10:06:13;;;;;;;9.60;2.70;;;;;;;34.74;19.12;99723.88;4973561;28;20145;-69
2022/08/18 10:09:01;;;;;;;17.95;3.00;;;;;;;34.27;19.36;99709.38;4962915;28;20059;-70
2022/08/18 10:11:49;;;;;;;9.52;3.03;;;;;;;33.72;20.18;99716.66;4953649;29;20425;-69
2022/08/18 10:14:30;;;;;;;8.05;2.83;;;;;;;33.17;21.02;99707.25;4955943;28;20598;-70
2022/08/18 10:17:43;;;;;;;4.22;2.40;;;;;;;32.96;21.07;99706.16;4973205;28;20055;-69
2022/08/18 10:20:59;;;;;;;15.65;2.95;;;;;;;32.93;21.34;99720.72;4949415;29;20055;-69
2022/08/18 10:24:03;;;;;;;10.40;3.33;;;;;;;32.41;21.89;99718.88;4939705;28;20103;-69
2022/08/18 10:26:55;;;;;;;10.57;2.88;;;;;;;31.96;22.73;99730.22;4976656;28;20074;-69
2022/08/18 10:29:28;;;;;;;14.13;3.05;;;;;;;31.63;23.15;99714.66;4957105;28;20111;-70
2022/08/18 10:31:58;;;;;;;9.60;3.08;;;;;;;31.56;23.12;99717.84;4958109;28;20385;-70
2022/08/18 10:34:48;;;;;;;7.82;2.53;;;;;;;31.32;23.02;99714.63;4970128;28;20054;-69
2022/08/18 10:37:33;;;;;;;9.55;3.30;;;;;;;31.27;23.15;99709.47;4962189;28;20058;-69
2022/08/18 10:40:14;;;;;;;10.40;2.75;;;;;;;31.33;23.00;99709.69;4962218;28;20075;-70
2022/08/18 10:43:00;;;;;;;4.90;2.63;;;;;;;31.28;22.80;99727.50;4950627;28;20051;-70
2022/08/18 10:45:44;;;;;;;9.93;2.72;;;;;;;31.11;22.67;99717.50;4960376;28;20051;-69
2022/08/18 10:48:33;;;;;;;4.37;2.30;;;;;;;30.80;22.28;99702.22;4957027;28;20055;-69
2022/08/18 10:51:29;;;;;;;10.90;2.00;;;;;;;30.77;21.77;99708.91;4978320;28;20054;-70
2022/08/18 10:54:48;;;;;;;11.32;2.50;;;;;;;30.78;22.48;99707.63;4947985;29;20549;-69
2022/08/18 10:58:00;;;;;;;17.95;4.47;;;;;;;30.79;22.73;99701.41;4935997;28;20150;-69
2022/08/18 11:01:02;;;;;;;9.48;2.50;;;;;;;30.72;23.48;99695.91;4975376;28;20088;-70
2022/08/18 11:03:41;;;;;;;6.07;2.42;;;;;;;30.75;23.04;99699.94;4965701;28;20050;-69
2022/08/18 11:06:27;;;;;;;7.18;2.63;;;;;;;30.79;23.11;99703.50;4967359;28;20145;-69
2022/08/18 11:09:00;;;;;;;4.82;2.45;;;;;;;30.63;22.37;99695.00;4970233;28;20055;-68
2022/08/18 11:11:34;;;;;;;6.20;2.10;;;;;;;30.53;22.59;99699.88;4965637;28;20184;-69
2022/08/18 11:14:42;;;;;;;4.60;1.92;;;;;;;30.56;22.24;99698.13;4965932;28;20062;-69
2022/08/18 11:17:41;;;;;;;9.07;2.47;;;;;;;30.67;21.80;99689.94;4956236;28;20063;-68
2022/08/18 11:20:12;;;;;;;8.93;2.40;;;;;;;30.74;22.17;99696.28;4972741;28;20063;-69
2022/08/18 11:22:50;;;;;;;3.88;2.03;;;;;;;30.80;21.54;99693.59;4975146;28;20403;-70
2022/08/18 11:25:24;;;;;;;8.50;2.17;;;;;;;30.83;21.90;99695.53;4954825;28;20138;-69
2022/08/18 11:27:53;;;;;;;6.80;3.15;;;;;;;30.85;21.53;99701.63;4963093;28;20058;-69
2022/08/18 11:30:25;;;;;;;8.52;2.05;;;;;;;30.89;22.04;99693.66;4966291;28;20051;-68
2022/08/18 11:32:59;;;;;;;10.90;2.40;;;;;;;30.93;22.34;99694.38;4969459;28;20146;-68
2022/08/18 11:35:32;;;;;;;2.90;1.77;;;;;;;30.94;22.06;99684.47;4957301;28;20059;-69
2022/08/18 11:38:03;;;;;;;8.73;2.53;;;;;;;30.95;21.71;99700.44;4959763;28;20425;-69
2022/08/18 11:40:40;;;;;;;10.45;2.08;;;;;;;30.71;21.31;99693.50;4975582;28;20094;-69
2022/08/18 11:43:33;;;;;;;11.38;2.42;;;;;;;30.49;21.66;99692.66;4969066;28;20067;-69
2022/08/18 11:46:24;;;;;;;8.82;2.03;;;;;;;30.41;21.13;99705.66;4975589;28;20081;-69
2022/08/18 11:49:12;;;;;;;5.97;1.95;;;;;;;30.38;21.37;99689.34;4959033;28;20130;-69
2022/08/18 11:51:58;;;;;;;3.28;1.98;;;;;;;30.42;21.15;99693.69;4963432;28;20400;-69
2022/08/18 11:54:40;;;;;;;6.53;1.73;;;;;;;30.39;20.59;99699.56;4959060;28;20427;-69
2022/08/18 11:57:51;;;;;;;11.00;1.90;;;;;;;30.27;20.47;99697.50;4960229;28;20066;-68
2022/08/18 12:00:40;;;;;;;7.20;1.80;;;;;;;30.10;19.78;99691.06;4970753;28;20058;-70
2022/08/18 12:03:30;;;;;;;5.15;2.50;;;;;;;30.10;20.16;99686.16;4956451;28;20082;-70
2022/08/18 12:06:09;;;;;;;9.27;1.80;;;;;;;30.18;20.41;99678.91;4957735;28;20055;-69
2022/08/18 12:09:04;;;;;;;3.25;1.70;;;;;;;30.28;20.29;99684.78;4959440;28;20063;-69
2022/08/18 12:11:34;;;;;;;7.50;1.63;;;;;;;30.27;19.48;99691.78;4969222;28;20455;-68
2022/08/18 12:14:14;;;;;;;9.02;1.60;;;;;;;30.20;19.88;99680.53;4976118;28;20062;-69
2022/08/18 12:17:00;;;;;;;7.15;1.90;;;;;;;30.09;19.43;99693.16;4958338;28;20063;-70
2022/08/18 12:19:29;;;;;;;8.05;2.05;;;;;;;30.00;19.98;99687.31;4967904;28;20086;-69
2022/08/18 12:22:03;;;;;;;6.43;1.98;;;;;;;29.93;20.05;99673.19;4960173;28;20118;-69
2022/08/18 12:24:37;;;;;;;4.20;1.92;;;;;;;29.91;19.95;99684.34;4964699;28;20082;-70
2022/08/18 12:27:05;;;;;;;5.27;1.63;;;;;;;29.89;19.82;99675.38;4961556;28;20091;-70